Time;durP1;ratioP1;P1;durP2;ratioP2;P2;SDS_P1;SDS_P2;PMS_P1;PMS_P2;Temp;Humidity;BMP_temperature;BMP_pressure;BME280_temperature;BME280_humidity;BME280_pressure;Samples;Min_cycle;Max_cycle;Signal;HPM_P1;HPM_P2
2023/07/04 00:02:01;;;;;;;5.97;1.33;;;;;;;22.47;36.92;101103.13;16114264;19;129263;-59
2023/07/04 00:07:23;;;;;;;3.40;1.30;;;;;;;22.46;37.04;101098.66;16115974;19;129477;-58
2023/07/04 00:12:45;;;;;;;3.80;1.50;;;;;;;22.46;37.17;101081.91;16113133;19;129973;-58
2023/07/04 00:18:07;;;;;;;3.63;1.05;;;;;;;22.44;36.87;101101.72;16115001;19;129846;-58
2023/07/04 00:23:31;;;;;;;3.25;1.10;;;;;;;22.43;36.85;101100.84;16115546;19;131243;-58
2023/07/04 00:28:54;;;;;;;4.53;1.20;;;;;;;22.42;36.67;101093.59;16106579;19;131569;-59
2023/07/04 00:34:16;;;;;;;3.67;1.27;;;;;;;22.43;36.98;101105.63;16111615;19;129565;-58
2023/07/04 00:39:37;;;;;;;2.55;0.90;;;;;;;22.42;37.21;101104.75;16116592;19;130906;-58
2023/07/04 00:44:59;;;;;;;4.93;1.65;;;;;;;22.41;36.98;101097.50;16111148;19;130842;-58
2023/07/04 00:50:25;;;;;;;2.97;1.02;;;;;;;22.40;37.07;101109.75;16111510;19;130333;-58
2023/07/04 00:55:48;;;;;;;;;;;;;;;22.35;37.16;101118.09;16108970;19;129999;-57
2023/07/04 01:01:10;;;;;;;5.45;1.38;;;;;;;22.39;37.39;101116.47;16105752;19;129512;-58
2023/07/04 01:06:43;;;;;;;4.50;1.00;;;;;;;22.39;37.12;101108.09;16107232;19;130342;-58
2023/07/04 01:12:06;;;;;;;8.23;1.60;;;;;;;22.36;37.07;101114.19;16113987;19;129968;-58
2023/07/04 01:17:29;;;;;;;4.05;1.20;;;;;;;22.34;37.42;101119.19;16110879;19;129137;-58
2023/07/04 01:23:27;;;;;;;3.25;1.08;;;;;;;22.34;37.18;101119.19;16111692;19;130445;-58
2023/07/04 01:28:53;;;;;;;4.30;1.33;;;;;;;22.33;37.50;101122.25;16097791;19;130670;-57
2023/07/04 01:34:20;;;;;;;3.58;1.00;;;;;;;22.31;37.30;101130.88;16098415;19;129670;-56
2023/07/04 01:39:42;;;;;;;3.35;1.27;;;;;;;22.30;37.67;101125.56;16103162;19;129878;-58
2023/07/04 01:45:06;;;;;;;3.55;1.23;;;;;;;22.29;37.37;101127.50;16100250;19;131121;-58
2023/07/04 01:50:28;;;;;;;3.15;1.23;;;;;;;22.27;37.15;101121.38;16099061;19;131990;-57
2023/07/04 01:55:50;;;;;;;2.95;0.90;;;;;;;22.26;37.76;101114.97;16091225;19;129703;-56
2023/07/04 02:01:12;;;;;;;3.25;1.10;;;;;;;22.25;37.67;101115.22;16100065;19;130917;-58
2023/07/04 02:06:34;;;;;;;5.45;1.38;;;;;;;22.24;37.60;101117.16;16107576;19;130625;-59
2023/07/04 02:11:56;;;;;;;6.80;1.40;;;;;;;22.24;37.81;101107.97;16106527;19;129680;-58
2023/07/04 02:17:18;;;;;;;3.05;1.20;;;;;;;22.23;37.58;101092.34;16107090;19;129974;-59
2023/07/04 02:22:41;;;;;;;3.97;1.10;;;;;;;22.24;37.55;101102.41;16115489;19;129934;-58
2023/07/04 02:28:03;;;;;;;4.25;1.30;;;;;;;22.22;37.43;101099.03;16125749;19;131812;-58
2023/07/04 02:33:26;;;;;;;4.15;1.38;;;;;;;22.22;37.59;101099.03;16118054;19;130440;-58
2023/07/04 02:38:48;;;;;;;3.88;1.40;;;;;;;22.22;37.44;101102.66;16117475;19;129520;-58
2023/07/04 02:44:10;;;;;;;4.85;1.17;;;;;;;22.22;37.93;101105.44;16118814;19;130168;-58
2023/07/04 02:49:35;;;;;;;3.05;1.20;;;;;;;22.22;37.70;101096.25;16118839;19;130390;-58
2023/07/04 02:54:57;;;;;;;3.65;1.08;;;;;;;22.20;37.85;101090.94;16117119;19;130875;-58
2023/07/04 03:00:19;;;;;;;4.63;1.30;;;;;;;22.21;37.70;101087.06;16113811;19;129972;-58
2023/07/04 03:05:42;;;;;;;3.00;1.27;;;;;;;22.21;37.48;101086.22;16118129;19;130269;-58
2023/07/04 03:11:04;;;;;;;5.38;1.50;;;;;;;22.19;38.12;101082.81;16119843;19;130275;-58
2023/07/04 03:16:26;;;;;;;4.45;1.30;;;;;;;22.18;37.87;101090.34;16114480;19;131223;-58
2023/07/04 03:21:48;;;;;;;5.85;1.00;;;;;;;22.19;38.20;101088.38;16115421;19;131475;-58
2023/07/04 03:27:10;;;;;;;4.22;1.27;;;;;;;22.19;37.69;101099.53;16111783;19;132190;-58
2023/07/04 03:32:32;;;;;;;5.32;1.63;;;;;;;22.17;37.70;101104.53;16113141;19;130485;-60
2023/07/04 03:37:55;;;;;;;4.18;1.40;;;;;;;22.19;38.03;101099.53;16113768;19;130179;-58
2023/07/04 03:43:17;;;;;;;5.30;1.38;;;;;;;22.16;38.21;101102.84;16115320;19;130567;-58
2023/07/04 03:48:39;;;;;;;3.00;1.30;;;;;;;22.14;38.27;101103.13;16109444;19;131652;-58
2023/07/04 03:54:01;;;;;;;5.50;1.73;;;;;;;22.15;37.87;101103.97;16112491;19;129773;-59
2023/07/04 03:59:23;;;;;;;3.63;1.10;;;;;;;22.15;38.26;101112.34;16109511;19;130563;-59
2023/07/04 04:04:48;;;;;;;7.13;1.02;;;;;;;22.12;38.45;101099.75;16114115;19;130916;-59
2023/07/04 04:10:10;;;;;;;3.70;1.23;;;;;;;22.10;38.00;101102.81;16108110;19;130043;-59
2023/07/04 04:15:32;;;;;;;7.55;1.42;;;;;;;22.10;38.47;101111.19;16114194;19;130116;-58
2023/07/04 04:20:54;;;;;;;4.53;1.15;;;;;;;22.12;38.03;101117.34;16117644;19;129692;-58
2023/07/04 04:26:16;;;;;;;2.92;1.08;;;;;;;22.12;38.43;101119.25;16109520;19;130465;-58
2023/07/04 04:31:39;;;;;;;4.22;1.20;;;;;;;22.11;38.52;101124.00;16114045;19;130096;-59
2023/07/04 04:37:01;;;;;;;4.53;1.27;;;;;;;22.10;38.29;101122.31;16111341;19;130159;-58
2023/07/04 04:42:23;;;;;;;5.00;1.17;;;;;;;22.10;38.10;101129.81;16108691;19;129476;-58
2023/07/04 04:47:52;;;;;;;5.78;1.48;;;;;;;22.09;38.37;101134.56;16105857;19;130435;-58
2023/07/04 04:53:14;;;;;;;4.13;1.40;;;;;;;22.07;38.62;101141.53;16109219;19;131257;-58
2023/07/04 04:58:37;;;;;;;5.60;1.08;;;;;;;22.07;38.55;101138.75;16111141;19;129491;-59
2023/07/04 05:03:59;;;;;;;4.68;1.10;;;;;;;22.07;38.44;101142.34;16110565;19;130813;-58
2023/07/04 05:09:21;;;;;;;5.63;1.48;;;;;;;22.07;38.41;101142.34;16111694;19;129957;-58
2023/07/04 05:14:43;;;;;;;4.45;1.60;;;;;;;22.07;38.51;101141.53;16112105;19;130935;-60
2023/07/04 05:20:06;;;;;;;4.10;1.23;;;;;;;22.07;38.79;101147.09;16109324;19;130707;-58
2023/07/04 05:25:28;;;;;;;6.25;1.70;;;;;;;22.07;38.55;101149.88;16114421;19;130257;-58
2023/07/04 05:30:57;;;;;;;3.15;1.20;;;;;;;22.07;38.46;101156.28;16112387;19;129352;-59
2023/07/04 05:36:21;;;;;;;9.45;1.80;;;;;;;22.05;38.55;101161.28;16110690;19;130360;-57
2023/07/04 05:41:43;;;;;;;5.47;1.60;;;;;;;22.04;38.46;101159.59;16110121;19;131467;-59
2023/07/04 05:47:05;;;;;;;9.27;2.08;;;;;;;22.05;38.65;101146.50;16109512;19;130055;-58
2023/07/04 05:52:29;;;;;;;6.75;1.95;;;;;;;22.04;38.79;101147.63;16110164;19;130253;-58
2023/07/04 05:57:51;;;;;;;6.55;1.85;;;;;;;22.05;38.86;101149.31;16117653;19;129273;-58
2023/07/04 06:03:17;;;;;;;7.88;1.88;;;;;;;22.06;38.39;101162.13;16126134;19;131607;-58
2023/07/04 06:08:39;;;;;;;9.23;2.50;;;;;;;22.05;38.46;101160.44;16121788;19;130641;-58
2023/07/04 06:14:03;;;;;;;13.20;2.25;;;;;;;22.07;38.54;101170.22;16123200;19;131533;-58
2023/07/04 06:19:25;;;;;;;9.98;2.17;;;;;;;22.08;38.55;101165.50;16124836;19;130596;-57
2023/07/04 06:24:50;;;;;;;9.85;2.10;;;;;;;22.09;38.93;101170.78;16119825;19;131126;-58
2023/07/04 06:30:13;;;;;;;10.25;2.47;;;;;;;22.10;38.46;101178.03;16122078;19;129904;-58
2023/07/04 06:35:40;;;;;;;10.20;2.45;;;;;;;22.10;38.64;101180.84;16125942;19;129702;-58
2023/07/04 06:41:05;;;;;;;10.70;2.05;;;;;;;22.11;38.67;101181.66;16126732;19;130363;-56
2023/07/04 06:46:26;;;;;;;10.97;2.20;;;;;;;22.10;38.79;101179.97;16122217;19;129004;-56
2023/07/04 06:51:48;;;;;;;11.98;2.75;;;;;;;22.11;38.69;101192.81;16124081;19;131425;-57
2023/07/04 06:57:10;;;;;;;7.88;2.10;;;;;;;22.10;38.99;101189.19;16115765;19;130583;-58
2023/07/04 07:02:32;;;;;;;8.52;2.00;;;;;;;22.19;38.39;101180.34;16121475;19;130245;-59
2023/07/04 07:07:55;;;;;;;6.35;1.65;;;;;;;22.26;38.55;101201.34;16118911;19;129395;-59
2023/07/04 07:13:17;;;;;;;6.55;1.65;;;;;;;22.34;38.24;101200.03;16121497;19;130310;-59
2023/07/04 07:18:41;;;;;;;7.15;1.95;;;;;;;22.40;38.20;101203.69;16119449;19;129713;-58
2023/07/04 07:24:04;;;;;;;7.25;2.17;;;;;;;22.41;38.23;101211.78;16115532;19;130579;-57
2023/07/04 07:29:26;;;;;;;8.00;1.95;;;;;;;22.46;37.93;101226.88;16119721;19;130184;-58
2023/07/04 07:34:48;;;;;;;7.32;1.80;;;;;;;22.46;38.14;101221.31;16114964;19;130730;-58
2023/07/04 07:40:10;;;;;;;8.05;1.95;;;;;;;22.47;37.88;101223.81;16123263;19;129921;-57
2023/07/04 07:45:32;;;;;;;9.48;2.05;;;;;;;22.49;38.14;101218.00;16120695;19;129204;-59
2023/07/04 07:50:54;;;;;;;7.80;2.35;;;;;;;22.52;37.81;101225.84;16113276;19;130687;-58
2023/07/04 07:56:18;;;;;;;8.10;1.80;;;;;;;22.56;37.62;101232.53;16115449;19;129531;-59
2023/07/04 08:01:40;;;;;;;7.60;2.00;;;;;;;22.56;37.51;101229.75;16117006;19;130008;-58
2023/07/04 08:07:02;;;;;;;7.65;1.88;;;;;;;22.55;38.02;101222.50;16118576;19;130347;-58
2023/07/04 08:12:24;;;;;;;5.72;1.83;;;;;;;22.54;37.73;101234.75;16117720;19;130304;-58
2023/07/04 08:17:46;;;;;;;8.27;1.90;;;;;;;22.57;37.52;101251.81;16116025;19;129808;-60
2023/07/04 08:23:08;;;;;;;10.82;1.67;;;;;;;22.60;37.63;101247.66;16117136;19;130892;-59
2023/07/04 08:28:30;;;;;;;9.57;2.10;;;;;;;22.65;37.54;101235.69;16120119;19;130407;-61
2023/07/04 08:33:52;;;;;;;9.75;1.80;;;;;;;22.72;37.59;101220.41;16120398;19;134417;-59
2023/07/04 08:39:14;;;;;;;8.88;1.65;;;;;;;22.77;37.67;101229.94;16117366;19;129470;-59
2023/07/04 08:44:43;;;;;;;5.55;1.73;;;;;;;22.83;37.12;101220.47;16114146;19;130671;-59
2023/07/04 08:50:14;;;;;;;6.13;1.30;;;;;;;22.88;36.96;101217.75;16115060;19;129834;-61
2023/07/04 08:55:47;;;;;;;5.78;1.73;;;;;;;22.89;36.95;101220.25;16118742;19;131157;-62
2023/07/04 09:01:14;;;;;;;;;;;;;;;22.89;36.92;101241.75;16116362;19;130892;-59
2023/07/04 09:06:51;;;;;;;7.75;1.58;;;;;;;22.96;36.79;101255.47;16115711;19;129489;-57
2023/07/04 09:12:13;;;;;;;4.60;1.20;;;;;;;22.95;36.55;101262.19;16112680;19;129542;-59
2023/07/04 09:17:43;;;;;;;6.53;1.98;;;;;;;22.96;36.61;101269.41;16111973;19;130911;-59
2023/07/04 09:23:18;;;;;;;8.70;1.88;;;;;;;22.97;36.60;101271.97;16110209;19;131978;-59
2023/07/04 09:28:43;;;;;;;7.40;1.73;;;;;;;22.98;36.75;101268.06;16106703;19;130273;-59
2023/07/04 09:34:26;;;;;;;5.77;1.57;;;;;;;23.00;36.53;101271.44;16110875;19;129844;-61
2023/07/04 09:39:54;;;;;;;9.27;2.15;;;;;;;22.99;36.24;101280.91;16113462;19;130509;-59
2023/07/04 09:45:22;;;;;;;7.18;1.85;;;;;;;23.00;36.92;101270.56;16112279;19;129673;-59
2023/07/04 09:50:45;;;;;;;4.55;1.40;;;;;;;22.99;36.45;101280.06;16109660;19;131175;-59
2023/07/04 09:56:06;;;;;;;7.97;1.58;;;;;;;23.00;36.40;101282.59;16108157;19;129633;-60
2023/07/04 10:01:29;;;;;;;7.18;1.52;;;;;;;22.99;36.65;101280.91;16109762;19;130892;-59
2023/07/04 10:06:53;;;;;;;5.50;1.58;;;;;;;22.99;36.50;101280.91;16106332;19;129358;-59
2023/07/04 10:12:17;;;;;;;6.60;1.67;;;;;;;22.99;36.84;101275.31;16110718;19;131390;-59
2023/07/04 10:17:40;;;;;;;7.13;1.70;;;;;;;22.98;36.46;101279.22;16109749;19;130291;-58
2023/07/04 10:23:02;;;;;;;6.60;2.05;;;;;;;22.97;36.58;101274.75;16108551;19;129239;-59
2023/07/04 10:28:26;;;;;;;6.40;1.98;;;;;;;22.97;36.28;101266.38;16106729;19;129851;-61
2023/07/04 10:34:02;;;;;;;7.45;2.17;;;;;;;22.98;36.13;101259.69;16107392;19;129453;-59
2023/07/04 10:39:26;;;;;;;7.05;1.75;;;;;;;22.97;36.47;101271.09;16106751;19;130160;-63
2023/07/04 10:44:54;;;;;;;5.47;1.48;;;;;;;22.98;36.20;101268.06;16118021;19;131079;-59
2023/07/04 10:50:26;;;;;;;7.80;1.70;;;;;;;23.02;36.22;101260.00;16125523;19;129895;-63
2023/07/04 10:56:06;;;;;;;5.38;1.75;;;;;;;23.06;35.82;101249.97;16121086;19;129503;-59
2023/07/04 11:01:51;;;;;;;7.47;1.90;;;;;;;23.11;36.03;101260.34;16116732;19;130074;-58
2023/07/04 11:07:21;;;;;;;5.43;1.47;;;;;;;23.14;35.91;101260.63;16112851;19;131175;-60
2023/07/04 11:12:43;;;;;;;8.85;1.52;;;;;;;23.15;36.04;101255.88;16114119;19;131068;-59
2023/07/04 11:18:05;;;;;;;9.88;2.53;;;;;;;23.14;36.32;101259.81;16115278;19;131375;-60
2023/07/04 11:23:53;;;;;;;7.95;1.90;;;;;;;23.13;36.07;101252.53;16120648;19;131399;-59
2023/07/04 11:29:21;;;;;;;7.03;1.98;;;;;;;23.10;36.51;101247.50;16116545;19;129521;-59
2023/07/04 11:34:50;;;;;;;6.25;1.60;;;;;;;23.08;36.13;101239.38;16122491;19;130522;-60
2023/07/04 11:40:20;;;;;;;5.43;1.88;;;;;;;23.07;35.95;101234.91;16121186;19;129432;-60
2023/07/04 11:45:43;;;;;;;7.28;1.90;;;;;;;23.04;36.41;101236.28;16123838;19;129865;-65
2023/07/04 11:51:11;;;;;;;9.77;2.42;;;;;;;23.12;36.11;101228.53;16118161;19;130662;-60
2023/07/04 11:56:41;;;;;;;4.20;1.42;;;;;;;23.17;36.35;101217.38;16116243;19;130425;-63
2023/07/04 12:02:11;;;;;;;7.60;2.25;;;;;;;23.25;35.80;101221.59;16117304;19;130288;-59
2023/07/04 12:07:42;;;;;;;7.50;2.00;;;;;;;23.30;35.78;101225.25;16116198;19;130596;-56
2023/07/04 12:13:07;;;;;;;8.18;2.75;;;;;;;23.31;36.01;101226.13;16113872;19;129923;-59
2023/07/04 12:18:33;;;;;;;9.88;2.90;;;;;;;23.33;35.83;101212.72;16108212;19;130634;-61
2023/07/04 12:23:55;;;;;;;10.40;2.95;;;;;;;23.33;35.53;101213.56;16117304;19;129520;-59
2023/07/04 12:29:17;;;;;;;7.45;2.58;;;;;;;23.36;35.74;101217.75;16117185;19;135096;-61
2023/07/04 12:34:42;;;;;;;11.93;2.83;;;;;;;23.37;35.68;101216.66;16112778;19;130319;-62
2023/07/04 12:40:14;;;;;;;;;;;;;;;23.37;35.75;101196.28;16119789;19;131017;-62
2023/07/04 12:45:35;;;;;;;6.75;2.97;;;;;;;23.40;35.63;101202.16;16120287;19;129442;-64
2023/07/04 12:50:58;;;;;;;10.88;2.67;;;;;;;23.40;35.72;101195.72;16112826;19;130349;-53
2023/07/04 12:56:21;;;;;;;11.70;3.58;;;;;;;23.39;35.71;101199.59;16108491;19;130686;-57
2023/07/04 13:01:43;;;;;;;5.57;2.88;;;;;;;23.31;35.92;101193.44;16109983;19;129597;-59
2023/07/04 13:07:05;;;;;;;9.25;2.70;;;;;;;23.29;35.73;101189.25;16104810;19;131147;-60
2023/07/04 13:12:33;;;;;;;6.75;2.78;;;;;;;23.28;35.70;101177.25;16087519;19;131142;-56
2023/07/04 13:18:06;;;;;;;6.40;2.88;;;;;;;23.26;35.90;101171.13;16091324;19;130868;-56
2023/07/04 13:23:33;;;;;;;7.13;2.70;;;;;;;23.24;35.81;101173.34;16097387;19;129530;-57
2023/07/04 13:29:33;;;;;;;7.88;2.50;;;;;;;23.21;35.89;101176.66;16091667;19;131346;-59
2023/07/04 13:34:58;;;;;;;6.55;2.90;;;;;;;23.21;36.00;101171.06;16083386;19;130285;-59
2023/07/04 13:40:20;;;;;;;7.53;2.70;;;;;;;23.19;35.88;101171.38;16081261;19;130823;-59
2023/07/04 13:45:42;;;;;;;9.23;2.72;;;;;;;23.17;36.01;101154.03;16085834;19;131057;-58
2023/07/04 13:51:04;;;;;;;6.80;2.60;;;;;;;23.18;36.20;101150.16;16083230;19;130089;-60
2023/07/04 13:56:26;;;;;;;4.18;2.15;;;;;;;23.19;36.21;101143.44;16087556;19;130256;-59
2023/07/04 14:01:48;;;;;;;8.18;2.67;;;;;;;23.18;36.14;101146.50;16081981;19;132433;-59
2023/07/04 14:07:12;;;;;;;7.00;3.00;;;;;;;23.18;36.17;101138.97;16085402;19;130518;-59
2023/07/04 14:12:36;;;;;;;4.53;2.40;;;;;;;23.19;36.07;101140.66;16092701;19;130398;-60
2023/07/04 14:17:58;;;;;;;6.63;2.60;;;;;;;23.18;36.08;101132.53;16096601;19;130659;-58
2023/07/04 14:23:23;;;;;;;4.97;2.55;;;;;;;23.15;36.44;101133.06;16102284;19;130554;-59
2023/07/04 14:28:46;;;;;;;7.97;2.40;;;;;;;23.15;36.38;101133.06;16105689;19;130225;-56
2023/07/04 14:34:08;;;;;;;5.13;2.75;;;;;;;23.12;36.37;101123.31;16101952;19;130916;-57
2023/07/04 14:39:30;;;;;;;5.60;2.55;;;;;;;23.10;36.29;101124.69;16103697;19;131441;-58
2023/07/04 14:44:51;;;;;;;8.88;2.78;;;;;;;23.07;36.16;101123.31;16103512;19;129829;-58
2023/07/04 14:50:16;;;;;;;7.60;2.47;;;;;;;23.04;35.91;101116.28;16101078;19;130274;-57
2023/07/04 14:55:39;;;;;;;4.78;2.40;;;;;;;23.03;36.18;101113.78;16104897;19;130111;-57
2023/07/04 15:01:03;;;;;;;6.55;2.90;;;;;;;23.00;36.17;101109.59;16103009;19;130139;-58
2023/07/04 15:06:28;;;;;;;4.88;2.20;;;;;;;22.97;36.11;101112.06;16104022;19;130267;-57
2023/07/04 15:11:50;;;;;;;5.87;2.47;;;;;;;22.95;36.18;101103.16;16101533;19;130129;-58
2023/07/04 15:17:12;;;;;;;6.25;2.80;;;;;;;22.92;36.06;101100.91;16102367;19;130135;-58
2023/07/04 15:22:34;;;;;;;6.53;2.83;;;;;;;22.89;36.00;101103.09;16100854;19;129987;-56
2023/07/04 15:27:56;;;;;;;5.68;2.88;;;;;;;22.89;35.94;101091.09;16093715;19;131019;-56
2023/07/04 15:33:18;;;;;;;10.13;3.08;;;;;;;22.86;36.28;101086.88;16101497;19;133678;-57
2023/07/04 15:38:40;;;;;;;5.90;2.75;;;;;;;22.85;35.97;101085.19;16100365;19;130519;-58
2023/07/04 15:44:02;;;;;;;10.38;3.90;;;;;;;22.86;35.90;101069.31;16098203;19;131331;-56
2023/07/04 15:49:24;;;;;;;16.55;3.47;;;;;;;22.87;35.96;101048.69;16093096;19;130439;-57
2023/07/04 15:54:46;;;;;;;9.20;3.20;;;;;;;22.88;35.85;101044.78;16097216;19;130524;-57
2023/07/04 16:00:10;;;;;;;8.13;3.25;;;;;;;22.88;36.18;101039.22;16097808;19;129926;-58
2023/07/04 16:05:32;;;;;;;10.10;3.00;;;;;;;22.87;36.07;101031.94;16099871;19;131780;-58
2023/07/04 16:10:56;;;;;;;11.63;3.30;;;;;;;22.86;36.40;101028.31;16097419;19;132192;-56
2023/07/04 16:16:18;;;;;;;7.40;3.22;;;;;;;22.87;36.62;101029.16;16100358;19;130959;-59
2023/07/04 16:21:40;;;;;;;10.40;2.78;;;;;;;22.86;36.72;101014.34;16110275;19;130487;-57
2023/07/04 16:27:02;;;;;;;7.10;3.33;;;;;;;22.86;36.47;101008.78;16111503;19;130504;-57
2023/07/04 16:32:26;;;;;;;10.75;3.20;;;;;;;22.85;36.88;100995.13;16118988;19;131060;-58
2023/07/04 16:37:48;;;;;;;6.80;3.03;;;;;;;22.83;36.65;101005.72;16112866;19;129334;-58
2023/07/04 16:43:10;;;;;;;9.18;3.00;;;;;;;22.84;36.71;100993.44;16112175;19;131727;-59
2023/07/04 16:48:33;;;;;;;9.07;2.53;;;;;;;22.82;37.13;100984.50;16111472;19;130892;-58
2023/07/04 16:53:54;;;;;;;6.40;2.80;;;;;;;22.79;36.98;100976.66;16114425;19;131427;-57
2023/07/04 16:59:16;;;;;;;6.30;2.85;;;;;;;22.77;37.17;100978.94;16110247;19;131642;-58
2023/07/04 17:04:38;;;;;;;10.38;2.70;;;;;;;22.74;37.09;100971.91;16112072;19;131807;-58
2023/07/04 17:10:00;;;;;;;6.75;2.53;;;;;;;22.72;37.41;100975.00;16112432;19;130213;-58
2023/07/04 17:15:22;;;;;;;6.97;2.08;;;;;;;22.72;37.35;100968.56;16106253;19;130743;-58
2023/07/04 17:20:45;;;;;;;8.57;2.50;;;;;;;22.68;37.29;100968.28;16094243;19;130656;-58
2023/07/04 17:26:06;;;;;;;6.53;2.10;;;;;;;22.68;37.34;100985.00;16095947;19;130557;-58
2023/07/04 17:31:28;;;;;;;6.70;1.95;;;;;;;22.66;37.07;100976.06;16090937;19;131336;-57
2023/07/04 17:36:51;;;;;;;5.05;2.05;;;;;;;22.65;37.45;100971.59;16092716;19;131760;-58
2023/07/04 17:42:13;;;;;;;4.95;2.28;;;;;;;22.64;37.37;100972.75;16093928;19;130848;-57
2023/07/04 17:47:35;;;;;;;4.68;1.85;;;;;;;22.63;37.56;100973.84;16094464;19;129918;-58
2023/07/04 17:52:57;;;;;;;6.00;2.33;;;;;;;22.62;37.82;100960.16;16099620;19;130438;-58
2023/07/04 17:58:19;;;;;;;4.60;1.98;;;;;;;22.60;37.22;100935.34;16104245;19;131418;-56
2023/07/04 18:03:44;;;;;;;4.28;2.20;;;;;;;22.59;37.50;100908.56;16104750;19;130352;-59
2023/07/04 18:09:06;;;;;;;5.82;1.70;;;;;;;22.56;37.40;100898.81;16108040;19;132096;-58
2023/07/04 18:14:28;;;;;;;3.25;1.55;;;;;;;22.58;37.78;100888.25;16107461;19;130273;-57
2023/07/04 18:19:53;;;;;;;2.58;1.60;;;;;;;22.55;37.85;100880.41;16099622;19;131821;-57
2023/07/04 18:25:19;;;;;;;3.85;1.85;;;;;;;22.55;37.81;100880.41;16102667;19;131675;-57
2023/07/04 18:30:41;;;;;;;2.75;1.40;;;;;;;22.54;37.99;100881.53;16104228;19;131069;-57
2023/07/04 18:36:22;;;;;;;2.45;1.42;;;;;;;22.55;37.79;100857.25;16104526;19;131072;-55
2023/07/04 18:41:44;;;;;;;5.30;1.60;;;;;;;22.53;37.96;100848.31;16104045;19;129833;-56
2023/07/04 18:47:07;;;;;;;7.65;1.50;;;;;;;22.54;38.04;100842.50;16100931;19;130844;-57
2023/07/04 18:52:29;;;;;;;7.57;2.03;;;;;;;22.56;38.30;100836.63;16099009;19;130561;-57
2023/07/04 18:57:51;;;;;;;9.10;2.22;;;;;;;22.58;38.19;100834.41;16103179;19;129849;-57
2023/07/04 19:03:13;;;;;;;13.10;2.15;;;;;;;22.61;38.40;100828.28;16102428;19;130748;-57
2023/07/04 19:08:36;;;;;;;8.27;2.00;;;;;;;22.62;38.24;100821.59;16102652;19;130825;-57
2023/07/04 19:14:04;;;;;;;8.90;1.70;;;;;;;22.64;38.52;100810.16;16098206;19;131321;-58
2023/07/04 19:19:32;;;;;;;11.80;2.38;;;;;;;22.64;38.84;100794.28;16099122;19;130503;-56
2023/07/04 19:24:54;;;;;;;11.95;3.10;;;;;;;22.65;39.17;100798.72;16111923;19;130705;-57
2023/07/04 19:30:16;;;;;;;17.33;3.03;;;;;;;22.66;39.34;100786.44;16117820;19;129525;-57
2023/07/04 19:35:42;;;;;;;19.77;2.83;;;;;;;22.69;39.62;100785.91;16119536;19;130978;-55
2023/07/04 19:41:05;;;;;;;14.38;3.13;;;;;;;22.70;40.00;100782.00;16115224;19;129576;-57
2023/07/04 19:46:27;;;;;;;22.77;3.28;;;;;;;22.71;40.03;100780.91;16119994;19;131479;-57
2023/07/04 19:51:52;;;;;;;26.20;3.70;;;;;;;22.72;40.42;100774.19;16120748;19;134050;-57
2023/07/04 19:57:14;;;;;;;33.88;4.25;;;;;;;22.75;40.36;100761.66;16116415;19;130573;-57
2023/07/04 20:02:36;;;;;;;26.65;3.88;;;;;;;22.78;40.41;100746.28;16114871;19;131977;-58
2023/07/04 20:07:58;;;;;;;30.05;3.58;;;;;;;22.78;40.58;100741.56;16113015;19;131201;-56
2023/07/04 20:13:26;;;;;;;16.08;3.33;;;;;;;22.78;40.43;100736.00;16114859;19;129894;-56
2023/07/04 20:18:48;;;;;;;16.92;2.67;;;;;;;22.77;40.55;100731.53;16111776;19;130850;-57
2023/07/04 20:24:10;;;;;;;17.33;2.67;;;;;;;22.77;40.44;100728.75;16115018;19;131540;-55
2023/07/04 20:29:32;;;;;;;17.35;2.83;;;;;;;22.78;40.27;100721.19;16112363;19;130833;-58
2023/07/04 20:34:54;;;;;;;17.77;2.88;;;;;;;22.77;40.70;100716.75;16114511;19;129466;-60
2023/07/04 20:40:16;;;;;;;19.30;3.08;;;;;;;22.73;40.33;100703.38;16108747;19;130499;-59
2023/07/04 20:45:39;;;;;;;11.20;2.33;;;;;;;22.73;40.58;100683.00;16101218;19;129886;-60
2023/07/04 20:51:04;;;;;;;12.50;2.78;;;;;;;22.70;40.83;100680.78;16112326;19;130020;-60
2023/07/04 20:56:26;;;;;;;17.55;2.88;;;;;;;22.68;40.73;100669.91;16113984;19;131511;-60
2023/07/04 21:01:48;;;;;;;16.98;3.15;;;;;;;22.66;40.33;100652.63;16107752;19;131039;-59
2023/07/04 21:07:10;;;;;;;12.48;2.67;;;;;;;22.63;40.71;100630.88;16110658;19;130730;-60
2023/07/04 21:12:32;;;;;;;12.13;2.55;;;;;;;22.63;40.42;100627.25;16104186;19;131426;-59
2023/07/04 21:17:55;;;;;;;11.48;2.42;;;;;;;22.63;40.44;100613.31;16109881;19;130079;-59
2023/07/04 21:23:17;;;;;;;10.38;2.05;;;;;;;22.61;40.69;100599.66;16113853;19;130805;-59
2023/07/04 21:28:40;;;;;;;8.50;2.08;;;;;;;22.61;40.21;100598.81;16109001;19;129703;-58
2023/07/04 21:34:02;;;;;;;8.10;2.20;;;;;;;22.59;40.61;100591.56;16110534;19;129733;-59
2023/07/04 21:39:24;;;;;;;6.47;2.13;;;;;;;22.60;40.47;100578.47;16112161;19;130168;-59
2023/07/04 21:44:46;;;;;;;11.48;2.30;;;;;;;22.60;40.40;100575.69;16109546;19;130680;-59
2023/07/04 21:50:08;;;;;;;10.40;1.80;;;;;;;22.59;40.39;100554.50;16107047;19;132216;-59
2023/07/04 21:55:30;;;;;;;8.05;1.48;;;;;;;22.58;40.33;100539.72;16103350;19;129362;-59
2023/07/04 22:00:52;;;;;;;4.93;2.00;;;;;;;22.57;40.42;100532.47;16107955;19;132704;-59
2023/07/04 22:06:14;;;;;;;6.00;1.83;;;;;;;22.55;40.65;100512.41;16107003;19;131353;-59
2023/07/04 22:11:36;;;;;;;6.88;1.98;;;;;;;22.58;40.32;100516.59;16105343;19;129928;-59
2023/07/04 22:16:58;;;;;;;6.03;1.63;;;;;;;22.56;40.33;100504.88;16103858;19;130051;-59
2023/07/04 22:22:20;;;;;;;3.60;1.55;;;;;;;22.54;40.19;100507.94;16104314;19;129468;-59
2023/07/04 22:27:43;;;;;;;6.65;1.90;;;;;;;22.55;40.47;100501.25;16103265;19;132412;-58
2023/07/04 22:33:05;;;;;;;5.07;1.90;;;;;;;22.55;40.45;100489.25;16105635;19;131129;-59
2023/07/04 22:38:27;;;;;;;5.65;1.83;;;;;;;22.54;40.30;100490.38;16112280;19;130011;-59
2023/07/04 22:43:48;;;;;;;4.85;1.75;;;;;;;22.54;40.73;100482.00;16121855;19;130388;-59
2023/07/04 22:49:10;;;;;;;4.90;1.77;;;;;;;22.52;40.30;100473.94;16119058;19;132254;-58
2023/07/04 22:54:33;;;;;;;5.03;2.03;;;;;;;22.50;40.56;100447.47;16120094;19;133401;-59
2023/07/04 22:59:55;;;;;;;4.43;1.70;;;;;;;22.50;40.30;100431.59;16117609;19;130155;-60
2023/07/04 23:05:17;;;;;;;5.35;1.83;;;;;;;22.49;40.75;100415.16;16115137;19;135574;-58
2023/07/04 23:10:39;;;;;;;7.22;2.00;;;;;;;22.48;40.72;100413.47;16118073;19;129291;-59
2023/07/04 23:16:07;;;;;;;4.03;1.52;;;;;;;22.47;40.40;100415.41;16117507;19;129991;-58
2023/07/04 23:21:29;;;;;;;3.17;1.50;;;;;;;22.46;40.40;100408.19;16117422;19;130480;-59
2023/07/04 23:26:51;;;;;;;3.95;1.60;;;;;;;22.46;40.70;100396.19;16116056;19;130530;-59
2023/07/04 23:32:13;;;;;;;5.32;2.03;;;;;;;22.44;40.64;100372.22;16120220;19;130786;-59
2023/07/04 23:37:34;;;;;;;5.00;1.52;;;;;;;22.43;40.32;100351.06;16115963;19;129537;-59
2023/07/04 23:42:56;;;;;;;2.65;1.67;;;;;;;22.42;40.97;100335.44;16115663;19;129831;-59
2023/07/04 23:48:19;;;;;;;2.35;1.40;;;;;;;22.42;40.73;100329.06;16113615;19;130457;-59
2023/07/04 23:53:41;;;;;;;3.05;1.40;;;;;;;22.41;41.09;100316.25;16114529;19;129986;-58
2023/07/04 23:59:03;;;;;;;2.38;1.65;;;;;;;22.41;40.40;100299.53;16115582;19;130486;-59
